Time;durP1;ratioP1;P1;durP2;ratioP2;P2;SDS_P1;SDS_P2;PMS_P1;PMS_P2;Temp;Humidity;BMP_temperature;BMP_pressure;BME280_temperature;BME280_humidity;BME280_pressure;Samples;Min_cycle;Max_cycle;Signal;HPM_P1;HPM_P2
2023/06/03 00:00:24;;;;;;;10.50;5.30;;;;;;;;;;5072058;28;20667;-63
2023/06/03 00:02:53;;;;;;;8.83;5.33;;;;;;;;;;5054026;28;20593;-61
2023/06/03 00:05:22;;;;;;;5.77;5.23;;;;;;;;;;5076336;28;20614;-62
2023/06/03 00:07:51;;;;;;;7.27;5.10;;;;;;;;;;5076549;28;21209;-62
2023/06/03 00:10:20;;;;;;;6.97;5.17;;;;;;;;;;5075799;28;20634;-61
2023/06/03 00:12:48;;;;;;;6.47;4.90;;;;;;;;;;5076498;28;20989;-63
2023/06/03 00:15:16;;;;;;;6.20;5.00;;;;;;;;;;5041620;28;21154;-63
2023/06/03 00:17:44;;;;;;;6.07;5.30;;;;;;;;;;5076060;28;20593;-63
2023/06/03 00:20:12;;;;;;;6.90;4.90;;;;;;;;;;5076102;28;20649;-63
2023/06/03 00:22:41;;;;;;;7.60;4.70;;;;;;;;;;5059232;28;20610;-63
2023/06/03 00:25:11;;;;;;;5.73;4.37;;;;;;;;;;5076186;28;20687;-64
2023/06/03 00:27:40;;;;;;;7.23;4.97;;;;;;;;;;5076392;28;20643;-63
2023/06/03 00:30:09;;;;;;;11.27;5.50;;;;;;;;;;5075638;28;20616;-63
2023/06/03 00:32:37;;;;;;;10.33;5.87;;;;;;;;;;5058568;28;20661;-63
2023/06/03 00:35:05;;;;;;;8.43;5.17;;;;;;;;;;5076192;28;20620;-63
2023/06/03 00:37:34;;;;;;;14.37;5.00;;;;;;;;;;5075981;28;20663;-63
2023/06/03 00:40:02;;;;;;;9.13;4.87;;;;;;;;;;5076350;28;20645;-63
2023/06/03 00:42:32;;;;;;;10.40;4.70;;;;;;;;;;5075776;28;20617;-63
2023/06/03 00:45:00;;;;;;;7.13;4.90;;;;;;;;;;5075737;28;20614;-62
2023/06/03 00:47:28;;;;;;;8.70;4.23;;;;;;;;;;5075767;28;20714;-63
2023/06/03 00:49:56;;;;;;;8.43;5.60;;;;;;;;;;5075387;28;20628;-63
2023/06/03 00:52:25;;;;;;;5.97;4.97;;;;;;;;;;5075744;28;20649;-63
2023/06/03 00:54:54;;;;;;;7.47;5.17;;;;;;;;;;5075470;28;20703;-63
2023/06/03 00:57:22;;;;;;;4.73;4.30;;;;;;;;;;5076055;28;21222;-63
2023/06/03 00:59:52;;;;;;;6.60;4.10;;;;;;;;;;5075610;28;20614;-63
2023/06/03 01:02:21;;;;;;;9.90;5.60;;;;;;;;;;5057358;28;20585;-64
2023/06/03 01:04:49;;;;;;;13.00;5.63;;;;;;;;;;5075430;28;20605;-63
2023/06/03 01:07:20;;;;;;;10.23;4.03;;;;;;;;;;5075917;28;20618;-62
2023/06/03 01:09:52;;;;;;;7.60;4.70;;;;;;;;;;5075145;28;20636;-62
2023/06/03 01:12:26;;;;;;;8.88;4.53;;;;;;;;;;5054580;28;20633;-62
2023/06/03 01:14:58;;;;;;;16.80;5.70;;;;;;;;;;5054268;28;20667;-63
2023/06/03 01:17:29;;;;;;;8.10;5.67;;;;;;;;;;5054246;28;20690;-63
2023/06/03 01:19:58;;;;;;;9.83;5.30;;;;;;;;;;5055158;28;20613;-63
2023/06/03 01:22:28;;;;;;;8.90;5.30;;;;;;;;;;5055528;28;20685;-63
2023/06/03 01:25:05;;;;;;;7.97;4.47;;;;;;;;;;5055941;28;21073;-63
2023/06/03 01:27:33;;;;;;;9.30;5.00;;;;;;;;;;5054500;28;20553;-63
2023/06/03 01:30:01;;;;;;;8.07;4.97;;;;;;;;;;5054104;28;20961;-63
2023/06/03 01:32:30;;;;;;;7.33;4.60;;;;;;;;;;5054977;28;20936;-62
2023/06/03 01:34:58;;;;;;;7.17;4.27;;;;;;;;;;5055398;28;20623;-62
2023/06/03 01:37:27;;;;;;;5.10;4.60;;;;;;;;;;5054085;28;20633;-63
2023/06/03 01:39:56;;;;;;;4.97;4.03;;;;;;;;;;5053729;28;20227;-63
2023/06/03 01:42:26;;;;;;;6.70;4.30;;;;;;;;;;5054907;28;20204;-62
2023/06/03 01:44:54;;;;;;;5.47;4.87;;;;;;;;;;5053813;28;20619;-63
2023/06/03 01:47:22;;;;;;;8.98;5.00;;;;;;;;;;5054991;28;20615;-63
2023/06/03 01:49:50;;;;;;;5.80;3.88;;;;;;;;;;5053828;28;20558;-63
2023/06/03 01:52:19;;;;;;;10.77;4.50;;;;;;;;;;5054314;28;20224;-64
2023/06/03 01:54:47;;;;;;;9.95;3.95;;;;;;;;;;5054475;28;21181;-63
2023/06/03 01:57:17;;;;;;;7.82;4.25;;;;;;;;;;5053688;28;20212;-63
2023/06/03 01:59:46;;;;;;;7.25;4.25;;;;;;;;;;5054965;28;20215;-62
2023/06/03 02:02:14;;;;;;;7.10;4.30;;;;;;;;;;5052368;28;20578;-63
2023/06/03 02:04:44;;;;;;;11.03;5.00;;;;;;;;;;5054072;28;20958;-63
2023/06/03 02:07:13;;;;;;;7.03;4.07;;;;;;;;;;5036567;28;20614;-63
2023/06/03 02:09:42;;;;;;;7.37;4.43;;;;;;;;;;5053891;28;20231;-62
2023/06/03 02:12:10;;;;;;;6.77;4.33;;;;;;;;;;5056806;28;20641;-63
2023/06/03 02:14:39;;;;;;;11.05;4.40;;;;;;;;;;5074536;28;20567;-63
2023/06/03 02:17:11;;;;;;;5.60;4.00;;;;;;;;;;5040070;28;20204;-62
2023/06/03 02:19:39;;;;;;;6.20;5.07;;;;;;;;;;5074526;28;20192;-63
2023/06/03 02:22:07;;;;;;;10.85;4.05;;;;;;;;;;5073722;28;20203;-62
2023/06/03 02:24:38;;;;;;;10.32;3.83;;;;;;;;;;5075254;28;20200;-62
2023/06/03 02:27:07;;;;;;;7.18;3.90;;;;;;;;;;5056195;28;20202;-65
2023/06/03 02:29:35;;;;;;;5.95;3.85;;;;;;;;;;5056561;28;20204;-62
2023/06/03 02:32:03;;;;;;;11.55;4.13;;;;;;;;;;5056189;28;20211;-63
2023/06/03 02:34:32;;;;;;;5.68;3.47;;;;;;;;;;5074761;28;20204;-62
2023/06/03 02:37:01;;;;;;;5.38;3.60;;;;;;;;;;5072817;28;20686;-63
2023/06/03 02:39:30;;;;;;;6.63;3.95;;;;;;;;;;5073300;28;20492;-62
2023/06/03 02:41:58;;;;;;;4.70;3.40;;;;;;;;;;5055521;28;20674;-63
2023/06/03 02:44:26;;;;;;;3.97;3.10;;;;;;;;;;5074087;28;20212;-64
2023/06/03 02:46:54;;;;;;;15.88;4.50;;;;;;;;;;5073504;28;20200;-63
2023/06/03 02:49:22;;;;;;;7.63;3.75;;;;;;;;;;5074202;28;20257;-62
2023/06/03 02:51:52;;;;;;;10.38;4.03;;;;;;;;;;5073802;28;20208;-63
2023/06/03 02:54:20;;;;;;;7.53;3.55;;;;;;;;;;5073340;28;20224;-62
2023/06/03 02:56:50;;;;;;;8.57;3.22;;;;;;;;;;5073915;28;20583;-63
2023/06/03 02:59:18;;;;;;;6.90;3.90;;;;;;;;;;5055113;28;20211;-62
2023/06/03 03:01:46;;;;;;;12.55;3.30;;;;;;;;;;5073102;28;20237;-63
2023/06/03 03:04:14;;;;;;;6.47;4.22;;;;;;;;;;5072882;28;20202;-62
2023/06/03 03:06:43;;;;;;;8.75;4.22;;;;;;;;;;5073447;28;20218;-62
2023/06/03 03:09:13;;;;;;;7.10;4.25;;;;;;;;;;5055707;28;20200;-62
2023/06/03 03:11:45;;;;;;;5.85;3.88;;;;;;;;;;5055736;28;20188;-62
2023/06/03 03:14:15;;;;;;;8.95;4.45;;;;;;;;;;5073287;28;20226;-61
2023/06/03 03:16:43;;;;;;;3.83;3.47;;;;;;;;;;5055752;28;20208;-60
2023/06/03 03:19:13;;;;;;;6.90;3.80;;;;;;;;;;5073371;28;20208;-61
2023/06/03 03:21:42;;;;;;;11.05;4.60;;;;;;;;;;5056011;28;20208;-60
2023/06/03 03:24:17;;;;;;;8.38;4.10;;;;;;;;;;5055286;28;20196;-60
2023/06/03 03:26:45;;;;;;;5.90;3.40;;;;;;;;;;5073405;28;20766;-60
2023/06/03 03:29:13;;;;;;;9.50;4.75;;;;;;;;;;5054972;28;20670;-61
2023/06/03 03:31:42;;;;;;;7.28;4.18;;;;;;;;;;5073226;28;20279;-60
2023/06/03 03:34:12;;;;;;;9.82;3.85;;;;;;;;;;5054299;28;20220;-61
2023/06/03 03:36:40;;;;;;;5.65;3.90;;;;;;;;;;5073855;28;20269;-60
2023/06/03 03:39:14;;;;;;;4.35;3.30;;;;;;;;;;5054769;28;20686;-60
2023/06/03 03:41:55;;;;;;;9.10;3.85;;;;;;;;;;5055670;28;20198;-60
2023/06/03 03:44:24;;;;;;;5.10;2.80;;;;;;;;;;5072729;28;20218;-60
2023/06/03 03:46:53;;;;;;;9.27;3.97;;;;;;;;;;5055560;28;20200;-61
2023/06/03 03:49:25;;;;;;;7.00;4.43;;;;;;;;;;5072149;28;20700;-61
2023/06/03 03:51:54;;;;;;;7.28;3.78;;;;;;;;;;5073582;28;20278;-62
2023/06/03 03:54:23;;;;;;;6.72;3.83;;;;;;;;;;5055142;28;20577;-61
2023/06/03 03:56:56;;;;;;;16.23;4.05;;;;;;;;;;5055333;28;20210;-60
2023/06/03 03:59:27;;;;;;;8.02;3.97;;;;;;;;;;5055222;28;20200;-61
2023/06/03 04:01:57;;;;;;;7.35;4.25;;;;;;;;;;5070945;28;20192;-61
2023/06/03 04:04:37;;;;;;;11.77;3.25;;;;;;;;;;5072035;28;20203;-61
2023/06/03 04:07:06;;;;;;;11.63;4.65;;;;;;;;;;5073572;28;20196;-64
2023/06/03 04:09:34;;;;;;;5.57;3.90;;;;;;;;;;5055280;28;20228;-61
2023/06/03 04:12:08;;;;;;;7.28;4.13;;;;;;;;;;5073390;28;20230;-60
2023/06/03 04:14:44;;;;;;;3.83;3.40;;;;;;;;;;5038291;28;20238;-62
2023/06/03 04:17:14;;;;;;;6.55;3.90;;;;;;;;;;5055255;28;20188;-60
2023/06/03 04:19:48;;;;;;;10.00;3.95;;;;;;;;;;5055326;28;20308;-62
2023/06/03 04:22:23;;;;;;;8.07;4.10;;;;;;;;;;5055415;28;20188;-61
2023/06/03 04:24:56;;;;;;;8.18;3.80;;;;;;;;;;5071148;28;20200;-61
2023/06/03 04:27:27;;;;;;;6.05;3.75;;;;;;;;;;5055276;28;20605;-61
2023/06/03 04:29:56;;;;;;;5.85;4.28;;;;;;;;;;5058094;28;20203;-62
2023/06/03 04:32:25;;;;;;;7.93;4.60;;;;;;;;;;5093313;28;20703;-61
2023/06/03 04:34:54;;;;;;;14.15;4.43;;;;;;;;;;5082983;28;20234;-61
2023/06/03 04:37:23;;;;;;;13.48;4.63;;;;;;;;;;5055802;28;20309;-61
2023/06/03 04:39:53;;;;;;;5.70;4.55;;;;;;;;;;5055138;28;20233;-61
2023/06/03 04:42:26;;;;;;;4.18;3.83;;;;;;;;;;5056088;28;20257;-61
2023/06/03 04:44:59;;;;;;;9.48;4.45;;;;;;;;;;5054747;28;20193;-62
2023/06/03 04:47:31;;;;;;;9.85;4.75;;;;;;;;;;5055517;28;20199;-61
2023/06/03 04:50:00;;;;;;;6.18;3.90;;;;;;;;;;5073764;28;20760;-61
2023/06/03 04:52:28;;;;;;;8.90;4.20;;;;;;;;;;5042322;28;20204;-61
2023/06/03 04:54:57;;;;;;;3.55;3.25;;;;;;;;;;5058854;28;20224;-62
2023/06/03 04:57:27;;;;;;;6.80;3.78;;;;;;;;;;5058682;28;20539;-61
2023/06/03 04:59:57;;;;;;;6.17;4.03;;;;;;;;;;5058548;28;20218;-61
2023/06/03 05:02:34;;;;;;;9.60;4.67;;;;;;;;;;5058242;28;20585;-61
2023/06/03 05:05:03;;;;;;;10.10;3.65;;;;;;;;;;5058413;28;20541;-61
2023/06/03 05:07:32;;;;;;;5.83;4.10;;;;;;;;;;5058691;28;20204;-61
2023/06/03 05:10:01;;;;;;;8.17;4.27;;;;;;;;;;5058907;28;20637;-61
2023/06/03 05:12:30;;;;;;;6.37;4.30;;;;;;;;;;5057812;28;20642;-62
2023/06/03 05:15:01;;;;;;;7.23;4.30;;;;;;;;;;5076174;28;20975;-61
2023/06/03 05:17:29;;;;;;;6.27;4.23;;;;;;;;;;5057412;28;20585;-61
2023/06/03 05:19:58;;;;;;;7.03;5.00;;;;;;;;;;5057470;28;20602;-61
2023/06/03 05:22:26;;;;;;;13.63;4.33;;;;;;;;;;5057604;28;20625;-61
2023/06/03 05:24:55;;;;;;;14.57;4.87;;;;;;;;;;5074308;28;21125;-61
2023/06/03 05:27:23;;;;;;;7.47;4.23;;;;;;;;;;5075105;28;20595;-61
2023/06/03 05:29:51;;;;;;;8.27;4.57;;;;;;;;;;5075174;28;20651;-61
2023/06/03 05:32:21;;;;;;;5.63;3.93;;;;;;;;;;5075521;28;20589;-62
2023/06/03 05:34:49;;;;;;;10.80;4.90;;;;;;;;;;5075271;28;20632;-61
2023/06/03 05:37:18;;;;;;;7.50;4.83;;;;;;;;;;5057873;28;21536;-61
2023/06/03 05:39:47;;;;;;;7.10;4.23;;;;;;;;;;5075376;28;21209;-62
2023/06/03 05:42:15;;;;;;;7.13;4.57;;;;;;;;;;5075538;28;21025;-61
2023/06/03 05:44:45;;;;;;;12.97;5.93;;;;;;;;;;5057650;28;20581;-61
2023/06/03 05:47:13;;;;;;;10.33;4.90;;;;;;;;;;5076016;28;20599;-61
2023/06/03 05:49:43;;;;;;;10.87;4.80;;;;;;;;;;5057752;28;20583;-61
2023/06/03 05:52:12;;;;;;;14.03;5.33;;;;;;;;;;5057952;28;20585;-61
2023/06/03 05:54:40;;;;;;;6.50;4.53;;;;;;;;;;5075232;28;20629;-61
2023/06/03 05:57:09;;;;;;;7.30;4.50;;;;;;;;;;5057288;28;20906;-61
2023/06/03 05:59:37;;;;;;;3.90;3.60;;;;;;;;;;5074906;28;20713;-61
2023/06/03 06:02:06;;;;;;;7.87;5.00;;;;;;;;;;5073849;28;20593;-64
2023/06/03 06:04:34;;;;;;;14.70;5.17;;;;;;;;;;5057804;28;20611;-61
2023/06/03 06:07:04;;;;;;;9.70;4.57;;;;;;;;;;5057493;28;20610;-61
2023/06/03 06:09:32;;;;;;;6.63;4.23;;;;;;;;;;5057149;28;20649;-62
2023/06/03 06:12:01;;;;;;;8.20;4.33;;;;;;;;;;5040398;28;20595;-61
2023/06/03 06:14:30;;;;;;;6.33;4.33;;;;;;;;;;5056662;28;20965;-62
2023/06/03 06:16:58;;;;;;;6.87;4.30;;;;;;;;;;5056472;28;20616;-61
2023/06/03 06:19:27;;;;;;;5.57;4.47;;;;;;;;;;5074716;28;20632;-62
2023/06/03 06:21:57;;;;;;;10.47;4.73;;;;;;;;;;5056792;28;20599;-61
2023/06/03 06:24:29;;;;;;;11.83;4.90;;;;;;;;;;5057351;28;20553;-61
2023/06/03 06:26:58;;;;;;;7.33;4.60;;;;;;;;;;5074274;28;20588;-61
2023/06/03 06:29:27;;;;;;;13.97;5.60;;;;;;;;;;5073940;28;21190;-61
2023/06/03 06:31:56;;;;;;;7.10;4.67;;;;;;;;;;5056094;28;21118;-61
2023/06/03 06:34:29;;;;;;;5.93;4.03;;;;;;;;;;5056296;28;20657;-61
2023/06/03 06:36:58;;;;;;;14.23;5.47;;;;;;;;;;5056122;28;20566;-61
2023/06/03 06:39:48;;;;;;;10.30;4.80;;;;;;;;;;5056611;28;20761;-61
2023/06/03 06:42:28;;;;;;;8.03;4.67;;;;;;;;;;5055978;28;20610;-62
2023/06/03 06:44:59;;;;;;;8.63;5.30;;;;;;;;;;5056749;28;20661;-61
2023/06/03 06:47:28;;;;;;;7.80;4.57;;;;;;;;;;5056207;28;20670;-61
2023/06/03 06:49:58;;;;;;;7.77;4.50;;;;;;;;;;5055971;28;20704;-62
2023/06/03 06:52:28;;;;;;;8.53;5.30;;;;;;;;;;5055771;28;20571;-61
2023/06/03 06:55:00;;;;;;;8.97;4.10;;;;;;;;;;5056768;28;20658;-61
2023/06/03 06:57:30;;;;;;;13.20;4.70;;;;;;;;;;5074269;28;20625;-61
2023/06/03 06:59:59;;;;;;;13.50;5.73;;;;;;;;;;5056598;28;20568;-61
2023/06/03 07:02:28;;;;;;;8.07;4.87;;;;;;;;;;5054930;28;20648;-61
2023/06/03 07:04:57;;;;;;;10.73;4.90;;;;;;;;;;5055862;28;20621;-61
2023/06/03 07:07:27;;;;;;;7.47;4.27;;;;;;;;;;5038591;28;20585;-63
2023/06/03 07:09:55;;;;;;;5.10;4.40;;;;;;;;;;5055703;28;20620;-64
2023/06/03 07:12:25;;;;;;;7.93;4.93;;;;;;;;;;5072460;28;20654;-62
2023/06/03 07:14:55;;;;;;;7.73;5.70;;;;;;;;;;5039094;28;20601;-62
2023/06/03 07:17:23;;;;;;;7.30;4.87;;;;;;;;;;5055481;28;20610;-61
2023/06/03 07:19:51;;;;;;;5.47;4.87;;;;;;;;;;5055109;28;20625;-61
2023/06/03 07:22:22;;;;;;;7.20;5.37;;;;;;;;;;5073357;28;20675;-61
2023/06/03 07:24:50;;;;;;;9.23;5.20;;;;;;;;;;5073790;28;20557;-62
2023/06/03 07:27:23;;;;;;;11.20;4.33;;;;;;;;;;5055347;28;21253;-62
2023/06/03 07:29:57;;;;;;;5.50;4.50;;;;;;;;;;5055050;28;21215;-61
2023/06/03 07:32:26;;;;;;;6.63;4.40;;;;;;;;;;5055037;28;20604;-63
2023/06/03 07:34:54;;;;;;;6.00;4.90;;;;;;;;;;5055093;28;20654;-61
2023/06/03 07:37:23;;;;;;;7.80;5.17;;;;;;;;;;5072706;28;20595;-61
2023/06/03 07:39:51;;;;;;;10.03;5.40;;;;;;;;;;5055135;28;20971;-62
2023/06/03 07:42:21;;;;;;;4.50;4.20;;;;;;;;;;5073183;28;21248;-62
2023/06/03 07:45:17;;;;;;;7.47;5.33;;;;;;;;;;5070454;28;21111;-61
2023/06/03 07:47:45;;;;;;;7.30;4.60;;;;;;;;;;5073267;28;21151;-62
2023/06/03 07:50:20;;;;;;;7.90;5.17;;;;;;;;;;5073045;28;20643;-62
2023/06/03 07:52:48;;;;;;;7.50;5.30;;;;;;;;;;5073203;28;20618;-61
2023/06/03 07:55:16;;;;;;;5.03;4.57;;;;;;;;;;5073102;28;20616;-61
2023/06/03 07:57:47;;;;;;;11.23;5.63;;;;;;;;;;5073497;28;20591;-62
2023/06/03 08:00:18;;;;;;;34.37;5.60;;;;;;;;;;5073112;28;20597;-62
2023/06/03 08:02:46;;;;;;;8.03;5.60;;;;;;;;;;5072238;28;20586;-62
2023/06/03 08:05:16;;;;;;;17.27;5.50;;;;;;;;;;5072204;28;20828;-61
2023/06/03 08:07:45;;;;;;;5.40;4.87;;;;;;;;;;5073160;28;20669;-61
2023/06/03 08:10:21;;;;;;;6.53;4.97;;;;;;;;;;5072349;28;20645;-62
2023/06/03 08:12:49;;;;;;;6.53;5.03;;;;;;;;;;5072959;28;20652;-61
2023/06/03 08:15:23;;;;;;;10.40;4.87;;;;;;;;;;5053953;28;20646;-62
2023/06/03 08:17:52;;;;;;;7.80;7.00;;;;;;;;;;5073099;28;20551;-61
2023/06/03 08:20:24;;;;;;;8.63;5.37;;;;;;;;;;5072034;28;21175;-61
2023/06/03 08:22:52;;;;;;;5.50;5.03;;;;;;;;;;5073204;28;20553;-62
2023/06/03 08:25:20;;;;;;;7.10;5.03;;;;;;;;;;5075148;28;20699;-62
2023/06/03 08:27:49;;;;;;;8.50;5.40;;;;;;;;;;5059330;28;20625;-62
2023/06/03 08:30:17;;;;;;;6.00;5.10;;;;;;;;;;5076456;28;20986;-62
2023/06/03 08:32:48;;;;;;;16.53;6.33;;;;;;;;;;5076930;28;20588;-61
2023/06/03 08:35:18;;;;;;;7.10;5.87;;;;;;;;;;5058042;28;20657;-62
2023/06/03 08:37:47;;;;;;;6.13;5.17;;;;;;;;;;5076750;28;20626;-61
2023/06/03 08:40:15;;;;;;;5.53;5.03;;;;;;;;;;5076264;28;21063;-61
2023/06/03 08:42:44;;;;;;;10.87;5.40;;;;;;;;;;5075913;28;20663;-62
2023/06/03 08:45:13;;;;;;;9.83;5.50;;;;;;;;;;5075397;28;20609;-61
2023/06/03 08:47:59;;;;;;;8.33;6.60;;;;;;;;;;5058523;28;20621;-61
2023/06/03 08:50:29;;;;;;;9.33;5.33;;;;;;;;;;5065947;28;20626;-61
2023/06/03 08:52:58;;;;;;;7.03;4.93;;;;;;;;;;5076005;28;20727;-61
2023/06/03 08:55:27;;;;;;;8.70;5.13;;;;;;;;;;5075628;28;21207;-61
2023/06/03 08:57:59;;;;;;;7.80;6.13;;;;;;;;;;5058242;28;20588;-61
2023/06/03 09:00:27;;;;;;;9.13;5.87;;;;;;;;;;5075416;28;21226;-62
2023/06/03 09:02:56;;;;;;;10.40;5.30;;;;;;;;;;5074595;28;21172;-61
2023/06/03 09:05:25;;;;;;;7.47;5.80;;;;;;;;;;5075271;28;20757;-62
2023/06/03 09:07:55;;;;;;;5.53;5.07;;;;;;;;;;5075728;28;20218;-61
2023/06/03 09:10:25;;;;;;;6.87;6.00;;;;;;;;;;5076118;28;20642;-61
2023/06/03 09:12:54;;;;;;;13.40;6.10;;;;;;;;;;5075412;28;20638;-61
2023/06/03 09:15:23;;;;;;;8.50;5.60;;;;;;;;;;5075843;28;20650;-61
2023/06/03 09:17:51;;;;;;;8.77;6.30;;;;;;;;;;5075288;28;21010;-62
2023/06/03 09:20:20;;;;;;;10.67;6.07;;;;;;;;;;5058680;28;20621;-61
2023/06/03 09:22:48;;;;;;;6.10;5.50;;;;;;;;;;5075528;28;20598;-62
2023/06/03 09:25:17;;;;;;;9.13;5.73;;;;;;;;;;5076078;28;20628;-61
2023/06/03 09:27:46;;;;;;;7.30;6.13;;;;;;;;;;5056464;28;21004;-62
2023/06/03 09:30:14;;;;;;;15.90;6.07;;;;;;;;;;5088218;28;20670;-61
2023/06/03 09:32:42;;;;;;;5.87;5.27;;;;;;;;;;5080588;28;21063;-61
2023/06/03 09:35:11;;;;;;;6.20;5.70;;;;;;;;;;5093647;28;20717;-62
2023/06/03 09:37:39;;;;;;;6.90;6.30;;;;;;;;;;5094531;28;21047;-61
2023/06/03 09:40:25;;;;;;;6.30;5.80;;;;;;;;;;5095064;28;21179;-62
2023/06/03 09:42:54;;;;;;;8.03;6.30;;;;;;;;;;5076871;28;21184;-61
2023/06/03 09:45:24;;;;;;;6.87;5.33;;;;;;;;;;5095698;28;20966;-61
2023/06/03 09:47:52;;;;;;;9.27;6.30;;;;;;;;;;5095272;28;20624;-61
2023/06/03 09:50:21;;;;;;;11.90;5.93;;;;;;;;;;5094984;28;20631;-61
2023/06/03 09:52:49;;;;;;;11.43;6.47;;;;;;;;;;5094587;28;20617;-61
2023/06/03 09:55:18;;;;;;;6.23;5.27;;;;;;;;;;5094906;28;20612;-60
2023/06/03 10:00:48;;;;;;;6.53;5.63;;;;;;;;;;5151678;27;20326;-63
2023/06/03 10:03:19;;;;;;;7.23;6.33;;;;;;;;;;5129584;28;20615;-61
2023/06/03 10:05:48;;;;;;;10.10;6.17;;;;;;;;;;5131140;28;21260;-61
2023/06/03 10:08:16;;;;;;;9.03;5.90;;;;;;;;;;5130741;28;20616;-61
2023/06/03 10:11:05;;;;;;;7.03;5.70;;;;;;;;;;5116543;28;20731;-62
2023/06/03 10:13:34;;;;;;;12.73;5.57;;;;;;;;;;5105195;28;20634;-61
2023/06/03 10:16:11;;;;;;;7.20;6.50;;;;;;;;;;5110509;28;20620;-62
2023/06/03 10:18:40;;;;;;;9.63;5.13;;;;;;;;;;5110206;28;20989;-63
2023/06/03 10:21:09;;;;;;;9.53;6.33;;;;;;;;;;5110735;28;20617;-62
2023/06/03 10:23:39;;;;;;;6.30;5.67;;;;;;;;;;5110582;28;20608;-62
2023/06/03 10:26:07;;;;;;;6.50;5.97;;;;;;;;;;5092535;28;20700;-62
2023/06/03 10:28:36;;;;;;;12.23;6.53;;;;;;;;;;5110785;28;20624;-65
2023/06/03 10:31:07;;;;;;;6.60;6.10;;;;;;;;;;5110272;28;20605;-62
2023/06/03 10:33:37;;;;;;;6.23;5.40;;;;;;;;;;5092689;28;20572;-65
2023/06/03 10:36:06;;;;;;;10.17;6.10;;;;;;;;;;5091683;28;20979;-64
2023/06/03 10:38:34;;;;;;;8.90;6.30;;;;;;;;;;5110121;28;20685;-62
2023/06/03 10:41:03;;;;;;;9.07;6.70;;;;;;;;;;5109395;28;20649;-62
2023/06/03 10:43:32;;;;;;;6.53;5.67;;;;;;;;;;5092134;28;20985;-62
2023/06/03 10:46:01;;;;;;;10.47;6.33;;;;;;;;;;5109873;28;20618;-63
2023/06/03 10:48:31;;;;;;;6.23;5.60;;;;;;;;;;5109890;28;20724;-61
2023/06/03 10:51:04;;;;;;;6.93;6.40;;;;;;;;;;5109997;28;20608;-63
2023/06/03 10:53:39;;;;;;;6.90;6.20;;;;;;;;;;5110261;28;20591;-62
2023/06/03 10:56:08;;;;;;;6.87;6.17;;;;;;;;;;5109254;28;20922;-63
2023/06/03 10:58:38;;;;;;;7.93;6.37;;;;;;;;;;5109547;28;20648;-61
2023/06/03 11:01:06;;;;;;;6.53;6.03;;;;;;;;;;5108228;28;21178;-61
2023/06/03 11:03:37;;;;;;;6.97;6.20;;;;;;;;;;5108707;28;21161;-63
2023/06/03 11:06:23;;;;;;;10.20;6.57;;;;;;;;;;5109370;28;20573;-60
2023/06/03 11:09:03;;;;;;;6.97;6.27;;;;;;;;;;5096981;28;20737;-61
2023/06/03 11:11:52;;;;;;;6.60;6.00;;;;;;;;;;5097200;28;20693;-62
2023/06/03 11:14:40;;;;;;;10.23;6.73;;;;;;;;;;5076159;28;20608;-62
2023/06/03 11:17:10;;;;;;;6.57;6.07;;;;;;;;;;5056808;28;20606;-62
2023/06/03 11:19:47;;;;;;;8.70;6.43;;;;;;;;;;5076072;28;20633;-62
2023/06/03 11:22:37;;;;;;;9.00;6.53;;;;;;;;;;5075383;28;20634;-63
2023/06/03 11:25:05;;;;;;;9.03;6.97;;;;;;;;;;5075613;28;20600;-62
2023/06/03 11:27:34;;;;;;;7.70;7.00;;;;;;;;;;5075104;28;21260;-62
2023/06/03 11:30:06;;;;;;;12.67;7.10;;;;;;;;;;5074858;28;20627;-62
2023/06/03 11:32:35;;;;;;;10.43;7.40;;;;;;;;;;5074776;28;20582;-62
2023/06/03 11:35:30;;;;;;;8.03;6.80;;;;;;;;;;5056700;28;21072;-62
2023/06/03 11:38:00;;;;;;;7.37;6.67;;;;;;;;;;5038762;28;20644;-62
2023/06/03 11:40:44;;;;;;;7.03;6.47;;;;;;;;;;5056457;28;20636;-63
2023/06/03 11:43:12;;;;;;;7.00;6.27;;;;;;;;;;5056414;28;20597;-62
2023/06/03 11:45:40;;;;;;;12.37;8.13;;;;;;;;;;5074481;28;20602;-62
2023/06/03 11:48:10;;;;;;;10.43;6.97;;;;;;;;;;5074415;28;20614;-62
2023/06/03 11:50:50;;;;;;;8.10;7.30;;;;;;;;;;5056676;28;20585;-62
2023/06/03 11:53:32;;;;;;;7.27;6.57;;;;;;;;;;5056113;28;21147;-62
2023/06/03 11:56:05;;;;;;;7.87;7.20;;;;;;;;;;5074677;28;20620;-62
2023/06/03 11:58:33;;;;;;;10.40;9.00;;;;;;;;;;5073892;28;20642;-63
2023/06/03 12:01:05;;;;;;;9.10;7.40;;;;;;;;;;5073454;28;21249;-62
2023/06/03 12:03:33;;;;;;;8.80;7.30;;;;;;;;;;5072860;28;20587;-62
2023/06/03 12:06:03;;;;;;;7.93;7.13;;;;;;;;;;5056411;28;20984;-62
2023/06/03 12:08:47;;;;;;;8.63;7.13;;;;;;;;;;5039028;28;20655;-61
2023/06/03 12:11:28;;;;;;;8.80;7.73;;;;;;;;;;5073318;28;21280;-60
2023/06/03 12:13:56;;;;;;;7.17;6.57;;;;;;;;;;5073089;28;20582;-61
2023/06/03 12:16:28;;;;;;;7.77;7.07;;;;;;;;;;5073658;28;21187;-61
2023/06/03 12:18:56;;;;;;;7.73;7.00;;;;;;;;;;5073135;28;21088;-61
2023/06/03 12:21:25;;;;;;;12.60;7.40;;;;;;;;;;5073647;28;20660;-61
2023/06/03 12:23:56;;;;;;;8.67;7.53;;;;;;;;;;5072542;28;20614;-61
2023/06/03 12:26:25;;;;;;;8.90;7.50;;;;;;;;;;5073359;28;20582;-61
2023/06/03 12:28:54;;;;;;;11.30;7.90;;;;;;;;;;5072697;28;20612;-62
2023/06/03 12:31:22;;;;;;;8.40;7.10;;;;;;;;;;5072683;28;21023;-64
2023/06/03 12:33:51;;;;;;;8.93;7.30;;;;;;;;;;5054632;28;20626;-61
2023/06/03 12:36:22;;;;;;;8.83;7.80;;;;;;;;;;5072989;28;20618;-62
2023/06/03 12:38:55;;;;;;;11.27;9.00;;;;;;;;;;5072554;28;20585;-62
2023/06/03 12:41:24;;;;;;;7.87;6.73;;;;;;;;;;5072995;28;20636;-62
2023/06/03 12:44:00;;;;;;;9.80;7.30;;;;;;;;;;5072768;28;20614;-62
2023/06/03 12:46:28;;;;;;;8.03;7.33;;;;;;;;;;5054625;28;21135;-62
2023/06/03 12:48:58;;;;;;;8.00;7.30;;;;;;;;;;5054612;28;20622;-62
2023/06/03 12:51:28;;;;;;;8.90;7.93;;;;;;;;;;5072306;28;20639;-63
2023/06/03 12:53:58;;;;;;;9.33;7.50;;;;;;;;;;5054515;28;20618;-62
2023/06/03 12:56:27;;;;;;;7.53;7.07;;;;;;;;;;5072531;28;20629;-62
2023/06/03 12:58:56;;;;;;;8.43;7.60;;;;;;;;;;5054480;28;20996;-62
2023/06/03 13:01:25;;;;;;;7.80;7.07;;;;;;;;;;5071712;28;20653;-63
2023/06/03 13:03:54;;;;;;;8.03;7.37;;;;;;;;;;5071875;28;20682;-62
2023/06/03 13:06:23;;;;;;;12.80;8.70;;;;;;;;;;5072052;28;20980;-62
2023/06/03 13:08:52;;;;;;;9.20;8.03;;;;;;;;;;5072174;28;21039;-62
2023/06/03 13:11:22;;;;;;;8.07;7.27;;;;;;;;;;5072511;28;20647;-62
2023/06/03 13:13:50;;;;;;;7.97;7.17;;;;;;;;;;5071797;28;20631;-62
2023/06/03 13:16:18;;;;;;;8.50;7.60;;;;;;;;;;5071957;28;20626;-62
2023/06/03 13:18:47;;;;;;;8.63;7.67;;;;;;;;;;5054039;28;20602;-63
2023/06/03 13:21:15;;;;;;;8.87;7.63;;;;;;;;;;5071897;28;20661;-62
2023/06/03 13:23:43;;;;;;;7.30;6.90;;;;;;;;;;5053625;28;20645;-63
2023/06/03 13:26:11;;;;;;;9.83;7.23;;;;;;;;;;5054405;28;20618;-62
2023/06/03 13:28:41;;;;;;;7.90;7.20;;;;;;;;;;5071351;28;20622;-62
2023/06/03 13:31:10;;;;;;;7.47;6.77;;;;;;;;;;5071957;28;20614;-62
2023/06/03 13:33:38;;;;;;;6.90;6.50;;;;;;;;;;5071417;28;20675;-61
2023/06/03 13:36:06;;;;;;;7.83;7.03;;;;;;;;;;5053958;28;20617;-64
2023/06/03 13:38:34;;;;;;;7.70;7.00;;;;;;;;;;5071224;28;20610;-62
2023/06/03 13:41:03;;;;;;;7.40;6.70;;;;;;;;;;5054790;28;20654;-61
2023/06/03 13:43:31;;;;;;;7.57;6.87;;;;;;;;;;5077662;28;20705;-61
2023/06/03 13:46:01;;;;;;;6.93;6.07;;;;;;;;;;5077784;28;20689;-62
2023/06/03 13:48:30;;;;;;;7.10;6.50;;;;;;;;;;5077291;28;20693;-62
2023/06/03 13:50:59;;;;;;;7.70;7.13;;;;;;;;;;5077670;28;21230;-62
2023/06/03 13:53:28;;;;;;;7.60;7.00;;;;;;;;;;5077023;28;20701;-62
2023/06/03 13:55:56;;;;;;;8.03;7.23;;;;;;;;;;5077413;28;20717;-61
2023/06/03 13:58:24;;;;;;;7.83;7.13;;;;;;;;;;5059436;28;21247;-61
2023/06/03 14:00:52;;;;;;;7.70;7.20;;;;;;;;;;5077629;28;20699;-62
2023/06/03 14:03:22;;;;;;;12.77;7.97;;;;;;;;;;5077034;28;20685;-61
2023/06/03 14:05:50;;;;;;;8.33;7.53;;;;;;;;;;5077736;28;20701;-62
2023/06/03 14:08:20;;;;;;;8.97;8.20;;;;;;;;;;5077390;28;20681;-62
2023/06/03 14:10:48;;;;;;;8.40;7.70;;;;;;;;;;5059270;28;20714;-62
2023/06/03 14:13:17;;;;;;;8.00;7.20;;;;;;;;;;5093779;28;20692;-62
2023/06/03 14:15:45;;;;;;;7.80;7.10;;;;;;;;;;5097909;28;20708;-62
2023/06/03 14:18:13;;;;;;;7.50;7.00;;;;;;;;;;5094754;28;20696;-62
2023/06/03 14:20:43;;;;;;;13.10;6.80;;;;;;;;;;5079919;28;20654;-62
2023/06/03 14:23:13;;;;;;;8.23;7.43;;;;;;;;;;5071218;28;20614;-62
2023/06/03 14:25:41;;;;;;;7.93;7.33;;;;;;;;;;5053165;28;20620;-62
2023/06/03 14:28:09;;;;;;;8.93;7.07;;;;;;;;;;5071465;28;20598;-62
2023/06/03 14:30:37;;;;;;;7.63;6.93;;;;;;;;;;5070829;28;21155;-63
2023/06/03 14:33:05;;;;;;;8.47;6.87;;;;;;;;;;5071653;28;20613;-65
2023/06/03 14:35:34;;;;;;;8.10;7.40;;;;;;;;;;5071593;28;20606;-62
2023/06/03 14:38:03;;;;;;;9.97;7.53;;;;;;;;;;5071503;28;20620;-63
2023/06/03 14:40:31;;;;;;;8.20;7.47;;;;;;;;;;5070515;28;21240;-62
2023/06/03 14:43:00;;;;;;;7.63;7.23;;;;;;;;;;5071247;28;20614;-62
2023/06/03 14:45:28;;;;;;;8.00;7.40;;;;;;;;;;5071015;28;20625;-62
2023/06/03 14:47:56;;;;;;;9.23;7.00;;;;;;;;;;5074588;28;20618;-62
2023/06/03 14:50:24;;;;;;;10.83;7.20;;;;;;;;;;5074139;28;20625;-63
2023/06/03 14:52:53;;;;;;;10.93;7.60;;;;;;;;;;5074969;28;20636;-62
2023/06/03 14:55:23;;;;;;;8.43;7.60;;;;;;;;;;5074232;28;20624;-62
2023/06/03 14:57:51;;;;;;;7.73;7.03;;;;;;;;;;5057078;28;20597;-63
2023/06/03 15:00:20;;;;;;;8.23;7.50;;;;;;;;;;5077654;28;20729;-62